Time;durP1;ratioP1;P1;durP2;ratioP2;P2;SDS_P1;SDS_P2;PMS_P1;PMS_P2;Temp;Humidity;BMP_temperature;BMP_pressure;BME280_temperature;BME280_humidity;BME280_pressure;Samples;Min_cycle;Max_cycle;Signal;HPM_P1;HPM_P2
2023/07/02 00:01:12;;;;;;;5.95;3.63;;;;;;;20.55;100.00;95620.44;5071296;28;20881;-81
2023/07/02 00:03:38;;;;;;;5.88;3.40;;;;;;;20.61;100.00;95611.50;5074336;28;20139;-82
2023/07/02 00:06:04;;;;;;;5.95;3.88;;;;;;;20.70;100.00;95605.53;5111048;28;20111;-81
2023/07/02 00:08:30;;;;;;;6.88;3.75;;;;;;;20.15;100.00;95607.84;5089216;27;20049;-81
2023/07/02 00:10:56;;;;;;;7.45;3.47;;;;;;;20.82;100.00;95615.38;5105726;28;20571;-81
2023/07/02 00:13:21;;;;;;;9.63;6.93;;;;;;;20.84;100.00;95616.75;5091468;27;20715;-80
2023/07/02 00:15:47;;;;;;;5.63;3.85;;;;;;;20.58;100.00;95618.13;5075078;28;20118;-80
2023/07/02 00:18:16;;;;;;;6.68;3.80;;;;;;;20.69;100.00;95625.31;5090839;28;20042;-81
2023/07/02 00:20:42;;;;;;;7.20;4.20;;;;;;;20.31;100.00;95619.66;5111487;27;20024;-81
2023/07/02 00:23:09;;;;;;;5.88;4.18;;;;;;;20.36;100.00;95623.28;5089583;28;20042;-81
2023/07/02 00:25:35;;;;;;;5.70;3.70;;;;;;;19.92;100.00;95625.53;5090935;28;20119;-80
2023/07/02 00:28:01;;;;;;;5.93;4.10;;;;;;;20.16;100.00;95625.50;5079501;27;20246;-80
2023/07/02 00:30:26;;;;;;;5.97;3.55;;;;;;;19.60;100.00;95632.22;5076538;28;20615;-81
2023/07/02 00:32:52;;;;;;;6.20;3.70;;;;;;;19.81;100.00;95623.66;5073365;28;20023;-81
2023/07/02 00:35:18;;;;;;;10.38;4.85;;;;;;;19.72;100.00;95625.06;5083069;28;20023;-82
2023/07/02 00:37:43;;;;;;;9.05;4.43;;;;;;;19.81;100.00;95623.66;5073186;28;20031;-80
2023/07/02 00:40:09;;;;;;;6.47;3.45;;;;;;;19.99;100.00;95626.22;5085375;28;20118;-81
2023/07/02 00:42:35;;;;;;;5.78;3.42;;;;;;;20.00;100.00;95627.84;5075774;27;20397;-81
2023/07/02 00:45:03;;;;;;;6.15;4.05;;;;;;;20.35;100.00;95624.28;5104309;27;20100;-81
2023/07/02 00:47:34;;;;;;;6.38;4.22;;;;;;;20.07;100.00;95626.91;5079953;28;20039;-81
2023/07/02 00:50:01;;;;;;;5.63;4.10;;;;;;;20.16;100.00;95629.00;5088354;28;20015;-81
2023/07/02 00:52:27;;;;;;;8.32;4.88;;;;;;;19.80;100.00;95631.91;5090660;28;20564;-81
2023/07/02 00:54:53;;;;;;;6.07;3.80;;;;;;;19.80;100.00;95638.03;5104431;27;20030;-80
2023/07/02 00:57:18;;;;;;;5.57;3.60;;;;;;;20.15;100.00;95634.53;5101954;28;20035;-81
2023/07/02 00:59:44;;;;;;;5.97;3.78;;;;;;;19.93;100.00;95637.81;5071578;28;20088;-81
2023/07/02 01:02:10;;;;;;;6.20;3.63;;;;;;;19.95;100.00;95637.56;5071590;28;20059;-81
2023/07/02 01:04:37;;;;;;;6.07;3.58;;;;;;;19.99;100.00;95634.22;5098434;27;20040;-80
2023/07/02 01:07:08;;;;;;;8.60;3.40;;;;;;;19.84;100.00;95639.19;5095222;28;20019;-81
2023/07/02 01:09:34;;;;;;;5.68;3.65;;;;;;;20.22;100.00;95633.41;5105406;27;20019;-81
2023/07/02 01:12:03;;;;;;;7.20;3.95;;;;;;;20.21;100.00;95628.28;5108936;27;20507;-80
2023/07/02 01:14:33;;;;;;;5.72;3.70;;;;;;;20.00;100.00;95627.84;5092508;27;20034;-80
2023/07/02 01:17:00;;;;;;;6.75;3.78;;;;;;;20.02;100.00;95635.63;5086198;28;20020;-80
2023/07/02 01:19:51;;;;;;;5.10;3.58;;;;;;;20.09;100.00;95630.16;5084800;28;20019;-81
2023/07/02 01:22:20;;;;;;;5.93;3.25;;;;;;;20.10;100.00;95631.78;5097833;28;20030;-81
2023/07/02 01:24:47;;;;;;;7.40;3.40;;;;;;;20.09;100.00;95627.50;5089711;27;20027;-81
2023/07/02 01:27:15;;;;;;;6.57;4.20;;;;;;;19.91;100.00;95629.22;5105659;28;20640;-81
2023/07/02 01:29:41;;;;;;;6.82;3.78;;;;;;;19.89;100.00;95631.31;5086710;28;20101;-80
2023/07/02 01:32:08;;;;;;;7.25;4.05;;;;;;;19.67;100.00;95638.28;5089275;28;20028;-79
2023/07/02 01:34:34;;;;;;;6.75;3.63;;;;;;;20.03;100.00;95637.25;5104997;27;20453;-81
2023/07/02 01:37:01;;;;;;;6.78;3.75;;;;;;;19.87;100.00;95643.28;5077365;28;20040;-80
2023/07/02 01:39:27;;;;;;;6.13;3.88;;;;;;;19.62;100.00;95644.28;5107764;27;20032;-81
2023/07/02 01:42:08;;;;;;;6.15;3.85;;;;;;;19.49;100.00;95636.50;5082827;28;20030;-81
2023/07/02 01:44:35;;;;;;;7.35;4.00;;;;;;;19.77;100.00;95633.97;5108288;27;20456;-81
2023/07/02 01:47:03;;;;;;;5.32;3.85;;;;;;;19.36;100.00;95644.69;5098275;27;20084;-80
2023/07/02 01:49:29;;;;;;;7.60;3.90;;;;;;;19.48;100.00;95643.69;5096757;28;20036;-81
2023/07/02 01:51:56;;;;;;;6.25;4.22;;;;;;;19.43;100.00;95638.22;5084488;28;20035;-80
2023/07/02 01:54:23;;;;;;;6.37;3.83;;;;;;;19.30;100.00;95641.06;5098383;27;20389;-81
2023/07/02 01:56:49;;;;;;;8.70;4.00;;;;;;;19.65;100.00;95643.00;5109222;27;20403;-81
2023/07/02 01:59:16;;;;;;;7.30;3.78;;;;;;;19.51;100.00;95645.84;5078945;28;20058;-80
2023/07/02 02:01:42;;;;;;;10.47;4.17;;;;;;;19.74;100.00;95641.63;5091834;27;20054;-80
2023/07/02 02:04:09;;;;;;;5.90;3.88;;;;;;;19.40;100.00;95648.53;5116618;27;20144;-80
2023/07/02 02:06:35;;;;;;;5.67;3.87;;;;;;;19.63;100.00;95647.75;5106341;28;20027;-80
2023/07/02 02:09:11;;;;;;;9.35;3.83;;;;;;;19.57;100.00;95643.34;5084731;27;20031;-80
2023/07/02 02:11:44;;;;;;;7.32;4.60;;;;;;;19.39;100.00;95650.38;5088243;27;20077;-81
2023/07/02 02:14:10;;;;;;;7.32;4.05;;;;;;;19.33;100.00;95653.94;5087455;28;20024;-80
2023/07/02 02:16:35;;;;;;;6.90;4.32;;;;;;;19.69;100.00;95657.53;5110129;28;20116;-81
2023/07/02 02:19:02;;;;;;;7.53;3.95;;;;;;;19.54;100.00;95658.75;5092356;28;20022;-81
2023/07/02 02:21:28;;;;;;;6.90;4.40;;;;;;;19.47;100.00;95660.69;5076192;28;20051;-80
2023/07/02 02:23:54;;;;;;;6.60;4.10;;;;;;;19.41;100.00;95661.59;5084551;28;20085;-80
2023/07/02 02:26:21;;;;;;;6.60;4.93;;;;;;;19.50;100.00;95664.78;5076467;28;20019;-81
2023/07/02 02:28:48;;;;;;;7.50;4.53;;;;;;;19.38;100.00;95658.59;5075432;28;20027;-80
2023/07/02 02:31:28;;;;;;;8.65;4.50;;;;;;;19.43;100.00;95650.72;5072439;28;20016;-80
2023/07/02 02:33:54;;;;;;;12.70;4.90;;;;;;;19.39;100.00;95650.38;5109846;28;20499;-80
2023/07/02 02:36:19;;;;;;;9.37;4.73;;;;;;;19.65;100.00;95651.00;5083755;28;20020;-81
2023/07/02 02:38:45;;;;;;;6.65;3.92;;;;;;;19.88;100.00;95642.22;5068021;28;20089;-81
2023/07/02 02:41:11;;;;;;;6.70;4.57;;;;;;;19.72;100.00;95646.41;5066185;28;20407;-81
2023/07/02 02:43:45;;;;;;;6.03;3.60;;;;;;;19.56;100.00;95642.53;5106531;27;20024;-81
2023/07/02 02:46:19;;;;;;;6.03;3.78;;;;;;;19.62;100.00;95654.94;5095388;28;20024;-81
2023/07/02 02:48:45;;;;;;;9.32;4.10;;;;;;;19.46;100.00;95651.09;5065065;28;20019;-80
2023/07/02 02:51:11;;;;;;;6.53;4.10;;;;;;;19.37;100.00;95649.78;5075137;28;20032;-79
2023/07/02 02:53:36;;;;;;;8.30;4.27;;;;;;;19.24;100.00;95658.78;5077134;27;20015;-80
2023/07/02 02:56:02;;;;;;;8.43;4.43;;;;;;;19.46;100.00;95659.09;5111164;28;20527;-79
2023/07/02 02:58:28;;;;;;;10.80;4.57;;;;;;;19.45;100.00;95654.81;5100054;28;20034;-79
2023/07/02 03:00:53;;;;;;;8.18;3.78;;;;;;;19.50;100.00;95648.78;5084324;28;20042;-79
2023/07/02 03:03:20;;;;;;;5.90;3.78;;;;;;;19.40;100.00;95660.00;5083950;27;20034;-80
2023/07/02 03:05:48;;;;;;;7.75;4.65;;;;;;;19.51;100.00;95656.53;5111335;27;20488;-79
2023/07/02 03:08:14;;;;;;;6.43;4.15;;;;;;;19.49;100.00;95652.50;5087848;28;20741;-79
2023/07/02 03:10:40;;;;;;;6.80;4.22;;;;;;;19.57;100.00;95652.13;5092700;28;20106;-79
2023/07/02 03:13:05;;;;;;;7.47;4.32;;;;;;;19.49;100.00;95660.50;5077237;28;20027;-80
2023/07/02 03:15:31;;;;;;;7.40;4.53;;;;;;;19.28;100.00;95667.13;5100150;27;20496;-79
2023/07/02 03:17:56;;;;;;;9.07;4.45;;;;;;;19.64;100.00;95660.06;5103273;28;20019;-79
2023/07/02 03:20:22;;;;;;;6.03;3.70;;;;;;;19.80;100.00;95663.91;5075315;28;20032;-80
2023/07/02 03:22:47;;;;;;;6.75;4.57;;;;;;;19.54;100.00;95666.75;5091467;28;20142;-79
2023/07/02 03:25:13;;;;;;;5.82;3.95;;;;;;;19.45;100.00;95657.47;5100444;27;20030;-80
2023/07/02 03:27:38;;;;;;;7.60;4.25;;;;;;;19.50;100.00;95659.44;5110202;27;20054;-79
2023/07/02 03:30:05;;;;;;;8.73;4.20;;;;;;;19.85;100.00;95645.34;5078081;28;20020;-79
2023/07/02 03:32:30;;;;;;;7.63;4.17;;;;;;;20.10;100.00;95659.28;5094336;27;20785;-80
2023/07/02 03:34:56;;;;;;;5.93;4.03;;;;;;;19.87;100.00;95657.41;5098098;28;20027;-80
2023/07/02 03:37:21;;;;;;;6.57;4.10;;;;;;;19.86;100.00;95666.47;5073155;28;20511;-79
2023/07/02 03:39:47;;;;;;;7.53;4.38;;;;;;;19.86;100.00;95674.47;5081391;27;20384;-79
2023/07/02 03:42:12;;;;;;;6.63;4.38;;;;;;;19.80;100.00;95667.41;5087301;27;20624;-79
2023/07/02 03:44:38;;;;;;;13.45;4.55;;;;;;;19.91;100.00;95669.25;5086841;27;20030;-79
2023/07/02 03:47:04;;;;;;;7.40;4.38;;;;;;;19.81;100.00;95681.53;5083658;28;20015;-79
2023/07/02 03:49:29;;;;;;;7.07;3.65;;;;;;;19.95;100.00;95665.09;5077328;28;20064;-79
2023/07/02 03:51:55;;;;;;;5.95;3.85;;;;;;;20.25;100.00;95674.81;5094363;28;20036;-79
2023/07/02 03:54:21;;;;;;;8.23;4.07;;;;;;;19.93;100.00;95677.84;5079598;27;20028;-79
2023/07/02 03:56:46;;;;;;;8.25;4.55;;;;;;;20.10;100.00;95672.63;5079512;28;20077;-80
2023/07/02 03:59:12;;;;;;;6.00;3.60;;;;;;;20.16;100.00;95668.22;5093659;28;20038;-79
2023/07/02 04:01:38;;;;;;;6.63;3.65;;;;;;;19.90;100.00;95685.50;5093264;27;20445;-79
2023/07/02 04:04:04;;;;;;;10.60;4.40;;;;;;;19.89;100.00;95682.03;5089101;27;20745;-79
2023/07/02 04:06:30;;;;;;;7.22;4.18;;;;;;;20.23;100.00;95684.94;5099713;28;20027;-79
2023/07/02 04:08:55;;;;;;;7.07;3.60;;;;;;;20.15;100.00;95683.41;5104470;27;20038;-80
2023/07/02 04:11:21;;;;;;;8.35;3.65;;;;;;;19.85;100.00;95688.03;5115418;27;20028;-80
2023/07/02 04:13:46;;;;;;;6.88;4.10;;;;;;;20.07;100.00;95694.44;5085276;27;20023;-79
2023/07/02 04:16:12;;;;;;;5.93;3.35;;;;;;;20.38;100.00;95690.59;5079662;28;20024;-80
2023/07/02 04:18:37;;;;;;;6.43;3.67;;;;;;;19.90;100.00;95699.66;5075417;28;20137;-81
2023/07/02 04:21:03;;;;;;;6.57;4.03;;;;;;;19.74;100.00;95700.31;5075557;28;20032;-81
2023/07/02 04:23:29;;;;;;;8.80;3.85;;;;;;;19.34;100.00;95713.41;5072162;28;20198;-80
2023/07/02 04:25:55;;;;;;;5.78;3.80;;;;;;;19.13;100.00;95720.06;5092957;28;20032;-80
2023/07/02 04:28:21;;;;;;;9.65;4.30;;;;;;;19.21;100.00;95725.06;5075876;28;20044;-80
2023/07/02 04:30:49;;;;;;;7.80;4.70;;;;;;;18.88;100.00;95734.31;5107296;27;20102;-79
2023/07/02 04:33:15;;;;;;;11.07;4.18;;;;;;;18.87;100.00;95743.34;5114018;27;20020;-79
2023/07/02 04:35:41;;;;;;;11.97;5.50;;;;;;;18.83;100.00;95739.50;5097356;27;20034;-80
2023/07/02 04:38:07;;;;;;;7.50;4.57;;;;;;;18.43;100.00;95745.22;5105393;28;20469;-80
2023/07/02 04:40:32;;;;;;;10.27;4.83;;;;;;;18.25;100.00;95753.19;5078255;28;20023;-80
2023/07/02 04:42:58;;;;;;;8.80;4.80;;;;;;;18.15;100.00;95756.34;5084305;28;20031;-80
2023/07/02 04:45:26;;;;;;;13.17;5.60;;;;;;;18.32;100.00;95757.41;5075940;28;20023;-80
2023/07/02 04:47:52;;;;;;;8.60;5.33;;;;;;;18.78;100.00;95753.50;5075056;28;20016;-79
2023/07/02 04:50:18;;;;;;;13.23;6.70;;;;;;;18.65;100.00;95761.59;5073788;28;20034;-80
2023/07/02 04:52:44;;;;;;;10.93;5.47;;;;;;;18.38;100.00;95753.06;5070257;28;20474;-79
2023/07/02 04:55:15;;;;;;;12.13;5.27;;;;;;;18.28;100.00;95763.41;5075127;28;20038;-80
2023/07/02 04:57:40;;;;;;;9.10;5.70;;;;;;;18.39;100.00;95773.31;5097112;28;20038;-80
2023/07/02 05:00:08;;;;;;;8.90;5.93;;;;;;;18.36;100.00;95771.09;5099548;28;20031;-80
2023/07/02 05:02:34;;;;;;;11.60;6.63;;;;;;;18.64;100.00;95770.59;5090268;28;20023;-79
2023/07/02 05:04:59;;;;;;;11.20;6.27;;;;;;;18.54;100.00;95776.47;5083557;28;20023;-79
2023/07/02 05:07:25;;;;;;;9.93;6.03;;;;;;;18.80;100.00;95777.22;5092910;28;20034;-80
2023/07/02 05:09:52;;;;;;;13.10;5.90;;;;;;;18.72;100.00;95777.53;5099285;28;20523;-80
2023/07/02 05:12:18;;;;;;;11.67;5.97;;;;;;;18.98;100.00;95782.56;5099746;28;20043;-80
2023/07/02 05:14:45;;;;;;;13.03;6.13;;;;;;;18.73;100.00;95776.50;5094534;28;20671;-80
2023/07/02 05:17:10;;;;;;;11.53;6.07;;;;;;;19.09;100.00;95781.00;5078536;28;20019;-80
2023/07/02 05:19:36;;;;;;;10.63;5.30;;;;;;;18.68;100.00;95784.28;5108688;28;20073;-80
2023/07/02 05:22:02;;;;;;;10.70;4.97;;;;;;;18.43;100.00;95787.81;5074471;28;20770;-79
2023/07/02 05:24:27;;;;;;;9.20;4.87;;;;;;;18.65;100.00;95779.44;5096025;28;20034;-80
2023/07/02 05:26:53;;;;;;;10.43;5.73;;;;;;;18.48;100.00;95795.97;5083980;28;20023;-80
2023/07/02 05:29:19;;;;;;;16.03;6.13;;;;;;;18.67;100.00;95785.34;5076328;28;20040;-80
2023/07/02 05:31:44;;;;;;;9.30;5.80;;;;;;;18.79;100.00;95797.72;5074488;28;20361;-80
2023/07/02 05:34:10;;;;;;;12.47;6.47;;;;;;;18.55;100.00;95796.72;5073687;28;20042;-80
2023/07/02 05:36:35;;;;;;;13.87;7.43;;;;;;;18.26;100.00;95798.19;5075191;28;20027;-80
2023/07/02 05:39:01;;;;;;;15.70;6.80;;;;;;;18.53;100.00;95798.78;5075585;28;20028;-80
2023/07/02 05:41:30;;;;;;;13.73;7.23;;;;;;;18.75;100.00;95796.56;5097359;28;20054;-80
2023/07/02 05:43:59;;;;;;;12.30;8.55;;;;;;;18.67;100.00;95790.66;5092451;28;20027;-80
2023/07/02 05:46:25;;;;;;;15.10;8.90;;;;;;;18.78;100.00;95797.97;5091153;28;20018;-80
2023/07/02 05:48:50;;;;;;;18.10;9.20;;;;;;;18.73;100.00;95805.78;5087347;28;20019;-80
2023/07/02 05:51:23;;;;;;;14.82;8.10;;;;;;;18.80;100.00;95804.69;5100801;28;20034;-80
2023/07/02 05:53:50;;;;;;;16.90;8.88;;;;;;;18.42;100.00;95812.81;5101777;27;20445;-80
2023/07/02 05:56:16;;;;;;;20.57;10.27;;;;;;;18.91;100.00;95810.31;5091003;28;20072;-80
2023/07/02 05:58:41;;;;;;;16.10;9.57;;;;;;;18.95;100.00;95816.84;5080471;28;20024;-81
2023/07/02 06:01:07;;;;;;;19.10;9.80;;;;;;;18.77;100.00;95814.97;5087244;27;20027;-80
2023/07/02 06:03:34;;;;;;;15.70;9.33;;;;;;;18.94;100.00;95816.00;5088413;27;20538;-80
2023/07/02 06:05:59;;;;;;;17.13;9.48;;;;;;;19.17;100.00;95820.66;5107005;27;20023;-80
2023/07/02 06:08:25;;;;;;;14.25;9.00;;;;;;;19.20;100.00;95816.75;5077628;27;20034;-80
2023/07/02 06:10:51;;;;;;;12.50;8.43;;;;;;;18.91;100.00;95818.31;5092029;27;20029;-81
2023/07/02 06:13:17;;;;;;;16.13;9.65;;;;;;;19.68;100.00;95821.28;5100550;27;20015;-80
2023/07/02 06:15:43;;;;;;;16.20;8.82;;;;;;;19.41;100.00;95820.78;5089491;27;20160;-80
2023/07/02 06:18:08;;;;;;;16.80;8.45;;;;;;;19.05;100.00;95820.63;5088986;27;20026;-80
2023/07/02 06:20:34;;;;;;;16.92;8.32;;;;;;;19.26;100.00;95823.84;5105551;28;20032;-81
2023/07/02 06:23:02;;;;;;;17.15;8.90;;;;;;;19.69;100.00;95828.28;5094867;27;20015;-80
2023/07/02 06:25:28;;;;;;;13.40;8.23;;;;;;;20.54;100.00;95816.50;5100567;27;20054;-80
2023/07/02 06:27:55;;;;;;;17.25;9.23;;;;;;;20.82;100.00;95816.59;5081696;28;20047;-80
2023/07/02 06:30:24;;;;;;;17.15;7.85;;;;;;;20.62;100.00;95816.16;5097529;28;20031;-80
2023/07/02 06:32:50;;;;;;;13.77;9.00;;;;;;;21.29;100.00;95813.84;5079811;27;20023;-80
2023/07/02 06:35:15;;;;;;;18.50;8.07;;;;;;;21.32;100.00;95810.69;5098400;28;20058;-80
2023/07/02 06:37:41;;;;;;;13.60;7.78;;;;;;;21.18;100.00;95810.16;5093856;28;20038;-80
2023/07/02 06:40:08;;;;;;;15.52;8.15;;;;;;;21.07;100.00;95811.00;5102665;28;20028;-81
2023/07/02 06:42:35;;;;;;;13.18;6.80;;;;;;;21.38;100.00;95801.75;5102860;27;20019;-80
2023/07/02 06:45:04;;;;;;;11.90;7.15;;;;;;;22.26;100.00;95807.66;5082735;28;20036;-80
2023/07/02 06:47:29;;;;;;;12.32;6.88;;;;;;;22.27;100.00;95805.81;5099631;28;20042;-80
2023/07/02 06:49:55;;;;;;;12.10;6.50;;;;;;;21.31;100.00;95803.75;5094814;27;20473;-80
2023/07/02 06:52:20;;;;;;;12.75;7.05;;;;;;;21.10;100.00;95817.75;5073284;28;20666;-80
2023/07/02 06:54:46;;;;;;;12.25;6.88;;;;;;;21.47;100.00;95802.22;5086549;28;20519;-80
2023/07/02 06:57:15;;;;;;;14.07;6.90;;;;;;;22.41;100.00;95795.56;5100504;28;20385;-82
2023/07/02 06:59:40;;;;;;;12.50;6.80;;;;;;;22.57;100.00;95800.09;5083469;27;20015;-81
2023/07/02 07:02:07;;;;;;;13.35;7.28;;;;;;;22.39;100.00;95809.19;5083631;28;20055;-81
2023/07/02 07:04:34;;;;;;;10.95;5.88;;;;;;;21.98;100.00;95808.50;5109771;27;20023;-81
2023/07/02 07:07:05;;;;;;;11.20;6.85;;;;;;;22.95;100.00;95814.59;5117794;27;20027;-81
2023/07/02 07:09:31;;;;;;;13.68;6.65;;;;;;;22.49;100.00;95811.22;5077141;28;20283;-81
2023/07/02 07:11:57;;;;;;;13.13;7.15;;;;;;;22.89;100.00;95808.31;5105235;27;20019;-81
2023/07/02 07:14:23;;;;;;;13.38;7.38;;;;;;;21.93;100.00;95815.63;5102114;27;20156;-81
2023/07/02 07:16:55;;;;;;;14.25;7.40;;;;;;;22.87;100.00;95815.81;5101257;28;20023;-81
2023/07/02 07:19:21;;;;;;;23.67;9.05;;;;;;;22.93;100.00;95814.03;5078962;27;20027;-81
2023/07/02 07:21:47;;;;;;;16.35;7.90;;;;;;;23.43;100.00;95807.69;5095473;28;20357;-82
2023/07/02 07:24:14;;;;;;;17.05;8.82;;;;;;;23.34;100.00;95811.88;5072917;28;20020;-81
2023/07/02 07:26:39;;;;;;;13.98;7.88;;;;;;;24.18;100.00;95806.09;5085809;28;20024;-81
2023/07/02 07:29:05;;;;;;;15.98;8.40;;;;;;;23.54;100.00;95798.72;5096536;28;20030;-81
2023/07/02 07:31:30;;;;;;;16.50;8.90;;;;;;;23.81;100.00;95806.81;5093662;28;20019;-81
2023/07/02 07:33:56;;;;;;;18.05;9.07;;;;;;;24.84;100.00;95809.28;5095839;28;20024;-81
2023/07/02 07:36:21;;;;;;;16.58;9.18;;;;;;;25.48;100.00;95810.94;5076852;28;20012;-81
2023/07/02 07:38:47;;;;;;;18.50;9.45;;;;;;;24.51;100.00;95834.56;5092355;28;20023;-81
2023/07/02 07:41:12;;;;;;;14.27;8.68;;;;;;;23.89;100.00;95827.81;5104080;27;20023;-82
2023/07/02 07:43:41;;;;;;;20.25;11.50;;;;;;;23.14;100.00;95826.66;5076811;27;20019;-81
2023/07/02 07:46:07;;;;;;;15.60;9.07;;;;;;;23.10;100.00;95830.88;5107499;27;21000;-81
2023/07/02 07:48:48;;;;;;;16.80;9.70;;;;;;;22.40;100.00;95847.50;5083715;27;20055;-81
2023/07/02 07:51:13;;;;;;;17.17;9.55;;;;;;;21.64;100.00;95837.84;5087188;28;20012;-81
2023/07/02 07:53:39;;;;;;;17.73;9.30;;;;;;;22.24;100.00;95833.06;5086622;27;20544;-81
2023/07/02 07:56:05;;;;;;;14.68;9.13;;;;;;;22.04;100.00;95847.69;5088587;27;20028;-81
2023/07/02 07:58:34;;;;;;;17.45;9.25;;;;;;;21.68;100.00;95842.75;5074850;28;20540;-81
2023/07/02 08:00:59;;;;;;;18.92;8.82;;;;;;;21.93;100.00;95842.38;5091838;28;20019;-81
2023/07/02 08:03:25;;;;;;;23.17;9.75;;;;;;;22.43;100.00;95844.34;5111002;27;20519;-81
2023/07/02 08:05:50;;;;;;;17.38;9.88;;;;;;;23.11;100.00;95832.53;5115357;27;20088;-81
2023/07/02 08:08:16;;;;;;;19.60;9.07;;;;;;;22.70;100.00;95842.66;5078655;28;20462;-81
2023/07/02 08:10:42;;;;;;;19.13;10.15;;;;;;;23.18;100.00;95832.34;5091690;27;20019;-80
2023/07/02 08:13:08;;;;;;;20.42;9.77;;;;;;;22.56;100.00;95831.44;5090965;28;20056;-82
2023/07/02 08:15:33;;;;;;;18.08;10.23;;;;;;;23.09;100.00;95826.59;5076447;28;20027;-81
2023/07/02 08:17:59;;;;;;;22.83;10.38;;;;;;;23.34;100.00;95836.03;5095082;28;20057;-81
2023/07/02 08:20:25;;;;;;;16.08;9.68;;;;;;;23.88;100.00;95846.91;5074583;28;20080;-82
2023/07/02 08:22:51;;;;;;;17.85;10.38;;;;;;;23.07;100.00;95847.47;5087655;28;20035;-81
2023/07/02 08:25:17;;;;;;;15.80;8.82;;;;;;;22.92;100.00;95848.06;5069898;28;20034;-81
2023/07/02 08:27:44;;;;;;;19.20;9.55;;;;;;;23.55;100.00;95848.63;5081155;27;20114;-81
2023/07/02 08:30:10;;;;;;;18.02;9.80;;;;;;;23.04;100.00;95851.47;5075116;28;20012;-80
2023/07/02 08:32:36;;;;;;;17.90;10.25;;;;;;;23.74;100.00;95847.28;5086190;27;20096;-81
2023/07/02 08:35:01;;;;;;;17.48;8.35;;;;;;;23.06;100.00;95851.22;5104140;28;20544;-81
2023/07/02 08:37:27;;;;;;;17.23;9.15;;;;;;;23.72;100.00;95838.66;5082979;27;20019;-82
2023/07/02 08:39:53;;;;;;;16.77;10.23;;;;;;;23.68;100.00;95842.13;5078854;28;20027;-82
2023/07/02 08:42:29;;;;;;;17.08;9.68;;;;;;;22.98;100.00;95851.66;5104980;27;20385;-82
2023/07/02 08:44:57;;;;;;;18.45;10.43;;;;;;;23.04;100.00;95854.16;5113204;28;20724;-81
2023/07/02 08:47:23;;;;;;;16.63;10.27;;;;;;;23.43;100.00;95851.44;5090957;28;20027;-81
2023/07/02 08:49:50;;;;;;;16.77;9.75;;;;;;;24.21;100.00;95851.22;5103525;27;20499;-82
2023/07/02 08:52:15;;;;;;;15.80;9.70;;;;;;;25.14;100.00;95851.72;5100293;28;20022;-82
2023/07/02 08:54:42;;;;;;;16.73;9.90;;;;;;;26.02;100.00;95842.94;5077710;27;20015;-82
2023/07/02 08:57:09;;;;;;;18.02;9.65;;;;;;;25.43;100.00;95845.13;5075501;28;20030;-82
2023/07/02 08:59:38;;;;;;;14.88;9.27;;;;;;;25.74;99.83;95838.78;5088168;27;20081;-82
2023/07/02 09:02:18;;;;;;;17.85;10.13;;;;;;;25.86;97.83;95843.97;5098058;28;20027;-82
2023/07/02 09:04:44;;;;;;;18.80;11.07;;;;;;;26.98;91.15;95840.53;5099264;28;20042;-83
2023/07/02 09:07:10;;;;;;;18.60;10.32;;;;;;;26.91;91.77;95842.72;5082176;28;20020;-82
2023/07/02 09:09:47;;;;;;;17.75;10.43;;;;;;;25.85;98.25;95843.16;5098660;28;20139;-82
2023/07/02 09:12:32;;;;;;;16.30;10.18;;;;;;;25.95;99.80;95850.44;5090221;28;20448;-82
2023/07/02 09:15:06;;;;;;;19.80;9.98;;;;;;;27.03;93.60;95844.03;5075387;28;20050;-82
2023/07/02 09:17:36;;;;;;;21.73;10.27;;;;;;;25.26;98.84;95850.72;5094336;28;20023;-82
2023/07/02 09:20:08;;;;;;;16.58;11.15;;;;;;;25.02;100.00;95855.66;5070176;28;20053;-82
2023/07/02 09:22:34;;;;;;;21.10;10.50;;;;;;;25.82;99.54;95859.84;5079816;28;20016;-81
2023/07/02 09:25:01;;;;;;;17.10;10.02;;;;;;;27.19;88.96;95847.53;5080696;27;20050;-82
2023/07/02 09:27:38;;;;;;;17.00;10.48;;;;;;;26.04;89.64;95842.66;5121750;27;20028;-80
2023/07/02 09:30:07;;;;;;;23.15;12.00;;;;;;;25.93;86.52;95847.22;5099242;28;20093;-81
2023/07/02 09:32:33;;;;;;;18.42;11.95;;;;;;;27.05;80.61;95838.34;5078664;27;20028;-81
2023/07/02 09:34:59;;;;;;;18.48;10.80;;;;;;;27.72;72.22;95836.25;5108538;27;20545;-80
2023/07/02 09:37:24;;;;;;;19.20;11.50;;;;;;;28.69;68.26;95840.28;5091889;28;20489;-80
2023/07/02 09:39:54;;;;;;;17.60;12.18;;;;;;;28.09;62.63;95829.59;5087186;28;20389;-82
2023/07/02 09:42:25;;;;;;;21.48;12.50;;;;;;;29.57;60.17;95831.78;5086728;27;20076;-81
2023/07/02 09:45:00;;;;;;;17.85;11.00;;;;;;;27.84;65.81;95831.38;5103861;28;20473;-81
2023/07/02 09:47:27;;;;;;;20.20;12.38;;;;;;;28.09;65.76;95837.72;5086266;28;20023;-82
2023/07/02 09:50:14;;;;;;;18.25;11.10;;;;;;;28.16;60.74;95833.59;5100286;28;20064;-81
2023/07/02 09:52:40;;;;;;;18.05;11.38;;;;;;;28.39;61.52;95840.22;5082777;28;20055;-80
2023/07/02 09:55:07;;;;;;;16.20;11.30;;;;;;;28.88;56.85;95833.88;5103431;28;20114;-81
2023/07/02 09:57:43;;;;;;;21.85;12.90;;;;;;;27.36;72.54;95836.41;5080174;27;20028;-81
2023/07/02 10:00:09;;;;;;;20.05;12.13;;;;;;;28.79;58.28;95837.47;5094050;27;20063;-81
2023/07/02 10:02:38;;;;;;;18.67;11.95;;;;;;;28.48;59.71;95836.94;5109439;27;20019;-81
2023/07/02 10:05:23;;;;;;;18.92;11.00;;;;;;;27.50;67.69;95850.16;5083456;27;20666;-80
2023/07/02 10:07:48;;;;;;;17.92;11.55;;;;;;;29.26;55.52;95835.94;5120932;27;20023;-80
2023/07/02 10:10:26;;;;;;;20.60;11.73;;;;;;;29.07;51.89;95833.16;5092863;28;20065;-81
2023/07/02 10:12:51;;;;;;;19.15;11.27;;;;;;;29.40;50.38;95836.06;5083073;27;20029;-81
2023/07/02 10:15:28;;;;;;;17.67;10.70;;;;;;;29.60;48.90;95839.34;5104514;28;20019;-81
2023/07/02 10:18:07;;;;;;;18.85;12.13;;;;;;;30.77;44.56;95831.44;5100474;27;20019;-81
2023/07/02 10:20:41;;;;;;;21.10;11.70;;;;;;;29.92;47.88;95831.66;5088784;27;20024;-81
2023/07/02 10:23:08;;;;;;;17.80;10.60;;;;;;;30.60;44.11;95833.09;5081549;27;20038;-80
2023/07/02 10:25:41;;;;;;;18.58;11.27;;;;;;;30.58;45.26;95833.38;5089318;27;20020;-81
2023/07/02 10:28:26;;;;;;;16.90;10.45;;;;;;;29.83;46.41;95835.00;5107961;28;20073;-80
2023/07/02 10:30:53;;;;;;;17.02;10.63;;;;;;;30.81;46.76;95826.22;5095966;28;20503;-81
2023/07/02 10:33:19;;;;;;;15.57;10.75;;;;;;;31.00;42.29;95823.47;5083662;28;20028;-80
2023/07/02 10:35:49;;;;;;;17.80;11.00;;;;;;;30.01;46.38;95829.88;5101044;27;20019;-80
2023/07/02 10:38:26;;;;;;;15.82;10.27;;;;;;;30.16;44.76;95824.25;5082073;28;20020;-81
2023/07/02 10:41:00;;;;;;;15.38;9.90;;;;;;;28.71;47.03;95829.97;5096157;28;20026;-81
2023/07/02 10:43:32;;;;;;;18.83;11.27;;;;;;;28.06;51.38;95822.03;5078723;28;20019;-80
2023/07/02 10:46:02;;;;;;;17.55;11.48;;;;;;;27.54;52.34;95834.19;5093226;28;20596;-81
2023/07/02 10:48:28;;;;;;;19.45;11.18;;;;;;;27.39;52.50;95833.16;5078669;27;20046;-81
2023/07/02 10:50:54;;;;;;;17.17;11.38;;;;;;;27.19;52.92;95833.22;5078339;28;20022;-80
2023/07/02 10:53:20;;;;;;;17.27;10.38;;;;;;;27.31;51.12;95836.44;5073262;28;20647;-79
2023/07/02 10:55:46;;;;;;;15.55;11.80;;;;;;;29.11;46.29;95820.69;5074897;28;20031;-79
2023/07/02 10:58:12;;;;;;;19.52;12.50;;;;;;;27.83;49.02;95824.34;5076870;28;20032;-80
2023/07/02 11:00:50;;;;;;;16.52;9.43;;;;;;;28.80;46.13;95839.06;5102643;28;20107;-81
2023/07/02 11:03:23;;;;;;;16.42;10.18;;;;;;;29.23;45.10;95834.59;5066470;28;20766;-81
2023/07/02 11:05:50;;;;;;;18.33;11.52;;;;;;;30.61;42.58;95821.91;5097150;27;20033;-81
2023/07/02 11:08:17;;;;;;;14.82;9.60;;;;;;;30.91;40.38;95819.81;5079970;28;20243;-80
2023/07/02 11:10:45;;;;;;;17.30;11.00;;;;;;;31.56;40.85;95816.97;5076050;28;20073;-81
2023/07/02 11:13:19;;;;;;;17.98;11.30;;;;;;;29.53;42.57;95822.63;5092145;28;20480;-81
2023/07/02 11:15:48;;;;;;;15.95;11.02;;;;;;;30.33;44.04;95821.03;5093012;28;20476;-81
2023/07/02 11:18:16;;;;;;;17.63;10.15;;;;;;;29.19;44.83;95830.06;5080345;28;20043;-81
2023/07/02 11:20:43;;;;;;;16.67;11.80;;;;;;;30.07;42.48;95818.66;5081511;27;20043;-81